FBD777 UUEE-URSS
Flight info
| Callsign | FBD777 |
|---|---|
| Flight time | 2h 16m |
| Altitude | 35000 |
| Route | EMGAS3J EMGAS T828 EKTUT N72 UMSIS N166 RUBLU/K0846F370 N166 OGURA G247 SM/K0867F290 B950 AG AG1H |
| Aircraft | B721/M-SDFGHRWY/C |
Departure
| Time | 2026-05-05 12:20 |
|---|---|
| Airport | Sheremetyevo International Airport (UUEE) |
Arrival
| Time | 2026-05-05 14:36 |
|---|---|
| Airport | Sochi International Airport (URSS) |
| Time | Latitude | Longitude | Altitude | Speed | Heading |
|---|---|---|---|---|---|
| 2026-05-05 11:45 | 55.97760 | 37.40390 | 643 ft | 0 kts | 165° |
| 2026-05-05 11:59 | 55.97760 | 37.40389 | 642 ft | 0 kts | 165° |
| 2026-05-05 12:08 | 55.97758 | 37.40391 | 642 ft | 3 kts | 165° |
| 2026-05-05 12:08 | 55.97721 | 37.40410 | 643 ft | 6 kts | 152° |
| 2026-05-05 12:09 | 55.97710 | 37.40488 | 643 ft | 9 kts | 75° |
| 2026-05-05 12:09 | 55.97716 | 37.40578 | 643 ft | 2 kts | 149° |
| 2026-05-05 12:09 | 55.97688 | 37.40590 | 642 ft | 9 kts | 169° |
| 2026-05-05 12:09 | 55.97609 | 37.40630 | 643 ft | 12 kts | 142° |
| 2026-05-05 12:10 | 55.97603 | 37.40792 | 643 ft | 15 kts | 75° |
| 2026-05-05 12:10 | 55.97601 | 37.40900 | 643 ft | 12 kts | 114° |
| 2026-05-05 12:10 | 55.97602 | 37.41034 | 643 ft | 10 kts | 75° |
| 2026-05-05 12:10 | 55.97587 | 37.41139 | 664 ft | 11 kts | 157° |
| 2026-05-05 12:11 | 55.97547 | 37.41265 | 645 ft | 16 kts | 76° |
| 2026-05-05 12:11 | 55.97581 | 37.41499 | 643 ft | 23 kts | 75° |
| 2026-05-05 12:11 | 55.97628 | 37.41810 | 643 ft | 29 kts | 75° |
| 2026-05-05 12:11 | 55.97682 | 37.42173 | 643 ft | 31 kts | 75° |
| 2026-05-05 12:12 | 55.97721 | 37.42432 | 645 ft | 14 kts | 75° |
| 2026-05-05 12:12 | 55.97753 | 37.42645 | 642 ft | 21 kts | 75° |
| 2026-05-05 12:12 | 55.97797 | 37.42936 | 643 ft | 27 kts | 75° |
| 2026-05-05 12:12 | 55.97852 | 37.43299 | 644 ft | 33 kts | 75° |
| 2026-05-05 12:13 | 55.97898 | 37.43610 | 643 ft | 25 kts | 75° |
| 2026-05-05 12:13 | 55.97933 | 37.43843 | 643 ft | 12 kts | 75° |
| 2026-05-05 12:13 | 55.97949 | 37.43975 | 643 ft | 8 kts | 101° |
| 2026-05-05 12:13 | 55.97925 | 37.44030 | 644 ft | 0 kts | 158° |
| 2026-05-05 12:15 | 55.97916 | 37.44036 | 643 ft | 4 kts | 161° |
| 2026-05-05 12:15 | 55.97870 | 37.44060 | 643 ft | 10 kts | 165° |
| 2026-05-05 12:15 | 55.97848 | 37.44071 | 643 ft | 10 kts | 165° |
| 2026-05-05 12:16 | 55.97786 | 37.44042 | 643 ft | 0 kts | 252° |
| 2026-05-05 12:19 | 55.97763 | 37.43900 | 644 ft | 37 kts | 255° |
| 2026-05-05 12:19 | 55.97629 | 37.43008 | 642 ft | 110 kts | 255° |
| 2026-05-05 12:19 | 55.97382 | 37.41353 | 772 ft | 160 kts | 255° |
| 2026-05-05 12:20 | 55.97058 | 37.39292 | 1354 ft | 178 kts | 253° |
| 2026-05-05 12:20 | 55.96581 | 37.37246 | 2142 ft | 186 kts | 237° |
| 2026-05-05 12:20 | 55.95753 | 37.35512 | 2810 ft | 177 kts | 234° |
| 2026-05-05 12:20 | 55.95051 | 37.33736 | 3643 ft | 175 kts | 237° |
| 2026-05-05 12:21 | 55.94359 | 37.31963 | 4429 ft | 176 kts | 237° |
| 2026-05-05 12:21 | 55.93652 | 37.30150 | 5078 ft | 183 kts | 237° |
| 2026-05-05 12:21 | 55.92908 | 37.28241 | 5588 ft | 192 kts | 238° |
| 2026-05-05 12:21 | 55.92149 | 37.26285 | 6113 ft | 192 kts | 238° |
| 2026-05-05 12:22 | 55.91382 | 37.24303 | 6606 ft | 194 kts | 239° |
| 2026-05-05 12:22 | 55.90613 | 37.22304 | 7087 ft | 197 kts | 239° |
| 2026-05-05 12:22 | 55.89837 | 37.20280 | 7586 ft | 199 kts | 239° |
| 2026-05-05 12:22 | 55.89054 | 37.18231 | 8090 ft | 200 kts | 239° |
| 2026-05-05 12:23 | 55.88275 | 37.16180 | 8600 ft | 200 kts | 239° |
| 2026-05-05 12:23 | 55.87497 | 37.14124 | 9112 ft | 199 kts | 239° |
| 2026-05-05 12:24 | 55.85273 | 37.08189 | 10555 ft | 197 kts | 240° |
| 2026-05-05 12:24 | 55.84680 | 37.06031 | 11016 ft | 194 kts | 261° |
| 2026-05-05 12:24 | 55.84899 | 37.03692 | 11510 ft | 194 kts | 288° |
| 2026-05-05 12:24 | 55.85474 | 37.01515 | 12024 ft | 193 kts | 291° |
| 2026-05-05 12:25 | 55.86066 | 36.99363 | 12534 ft | 193 kts | 294° |
| 2026-05-05 12:25 | 55.86860 | 36.97427 | 13050 ft | 194 kts | 302° |
| 2026-05-05 12:25 | 55.87687 | 36.95553 | 13572 ft | 191 kts | 302° |
| 2026-05-05 12:25 | 55.88504 | 36.93703 | 14040 ft | 189 kts | 302° |
| 2026-05-05 12:26 | 55.89314 | 36.91881 | 14502 ft | 187 kts | 302° |
| 2026-05-05 12:26 | 55.90100 | 36.90071 | 14969 ft | 182 kts | 297° |
| 2026-05-05 12:26 | 55.90493 | 36.88017 | 15430 ft | 173 kts | 275° |
| 2026-05-05 12:26 | 55.90321 | 36.85962 | 15897 ft | 169 kts | 245° |
| 2026-05-05 12:27 | 55.89458 | 36.84573 | 16388 ft | 172 kts | 217° |
| 2026-05-05 12:27 | 55.88417 | 36.83532 | 16909 ft | 167 kts | 218° |
| 2026-05-05 12:27 | 55.87500 | 36.82354 | 17236 ft | 171 kts | 224° |
| 2026-05-05 12:27 | 55.86410 | 36.81131 | 17256 ft | 194 kts | 209° |
| 2026-05-05 12:28 | 55.85085 | 36.80712 | 17756 ft | 203 kts | 181° |
| 2026-05-05 12:28 | 55.83685 | 36.81378 | 18070 ft | 211 kts | 172° |
| 2026-05-05 12:28 | 55.82272 | 36.82127 | 18372 ft | 213 kts | 172° |
| 2026-05-05 12:28 | 55.80843 | 36.82868 | 18669 ft | 214 kts | 172° |
| 2026-05-05 12:29 | 55.79402 | 36.83596 | 18961 ft | 215 kts | 173° |
| 2026-05-05 12:29 | 55.77959 | 36.84323 | 19247 ft | 217 kts | 171° |
| 2026-05-05 12:29 | 55.76550 | 36.85411 | 19537 ft | 223 kts | 161° |
| 2026-05-05 12:29 | 55.75161 | 36.86640 | 19840 ft | 222 kts | 163° |
| 2026-05-05 12:30 | 55.73750 | 36.87746 | 20123 ft | 222 kts | 165° |
| 2026-05-05 12:30 | 55.72321 | 36.88825 | 20316 ft | 227 kts | 165° |
| 2026-05-05 12:30 | 55.70853 | 36.89960 | 20475 ft | 233 kts | 164° |
| 2026-05-05 12:30 | 55.69350 | 36.91132 | 20614 ft | 239 kts | 164° |
| 2026-05-05 12:31 | 55.67810 | 36.92328 | 20708 ft | 245 kts | 164° |
| 2026-05-05 12:31 | 55.66350 | 36.93460 | 20792 ft | 250 kts | 164° |
| 2026-05-05 12:31 | 55.64744 | 36.94706 | 20887 ft | 254 kts | 163° |
| 2026-05-05 12:31 | 55.63114 | 36.95969 | 20971 ft | 257 kts | 163° |
| 2026-05-05 12:32 | 55.61436 | 36.97258 | 21004 ft | 273 kts | 163° |
| 2026-05-05 12:32 | 55.59599 | 36.98659 | 21093 ft | 302 kts | 162° |
| 2026-05-05 12:32 | 55.57610 | 37.00196 | 21414 ft | 321 kts | 162° |
| 2026-05-05 12:32 | 55.55576 | 37.01790 | 22357 ft | 318 kts | 162° |
| 2026-05-05 12:33 | 55.53538 | 37.03364 | 23107 ft | 323 kts | 162° |
| 2026-05-05 12:33 | 55.51462 | 37.04947 | 23751 ft | 327 kts | 162° |
| 2026-05-05 12:33 | 55.49353 | 37.06563 | 24287 ft | 335 kts | 162° |
| 2026-05-05 12:33 | 55.47172 | 37.08236 | 24614 ft | 349 kts | 161° |
| 2026-05-05 12:34 | 55.44929 | 37.09955 | 24919 ft | 363 kts | 161° |
| 2026-05-05 12:34 | 55.42576 | 37.11756 | 25253 ft | 375 kts | 161° |
| 2026-05-05 12:34 | 55.40378 | 37.13443 | 25952 ft | 374 kts | 161° |
| 2026-05-05 12:34 | 55.37974 | 37.15278 | 26462 ft | 380 kts | 161° |
| 2026-05-05 12:35 | 55.35537 | 37.17130 | 27055 ft | 383 kts | 161° |
| 2026-05-05 12:35 | 55.33084 | 37.18999 | 27631 ft | 387 kts | 161° |
| 2026-05-05 12:35 | 55.30593 | 37.20895 | 28190 ft | 391 kts | 161° |
| 2026-05-05 12:35 | 55.28081 | 37.22800 | 28732 ft | 395 kts | 161° |
| 2026-05-05 12:36 | 55.25550 | 37.24716 | 29284 ft | 398 kts | 161° |
| 2026-05-05 12:36 | 55.22995 | 37.26652 | 29802 ft | 402 kts | 161° |
| 2026-05-05 12:36 | 55.20415 | 37.28604 | 30268 ft | 405 kts | 161° |
| 2026-05-05 12:36 | 55.17821 | 37.30562 | 30730 ft | 408 kts | 161° |
| 2026-05-05 12:37 | 55.15202 | 37.32535 | 31173 ft | 411 kts | 161° |
| 2026-05-05 12:37 | 55.12568 | 37.34516 | 31622 ft | 413 kts | 161° |
| 2026-05-05 12:37 | 55.09927 | 37.36502 | 32057 ft | 416 kts | 161° |
| 2026-05-05 12:37 | 55.07279 | 37.38491 | 32476 ft | 418 kts | 161° |
| 2026-05-05 12:38 | 55.04565 | 37.40525 | 32893 ft | 421 kts | 161° |
| 2026-05-05 12:38 | 55.01872 | 37.42538 | 33316 ft | 423 kts | 161° |
| 2026-05-05 12:38 | 54.99164 | 37.44563 | 33723 ft | 425 kts | 161° |
| 2026-05-05 12:38 | 54.96438 | 37.46597 | 34073 ft | 428 kts | 161° |
| 2026-05-05 12:39 | 54.93692 | 37.48642 | 34423 ft | 430 kts | 161° |
| 2026-05-05 12:39 | 54.91189 | 37.50504 | 34739 ft | 431 kts | 161° |
| 2026-05-05 12:39 | 54.88430 | 37.52553 | 35069 ft | 433 kts | 161° |
| 2026-05-05 12:39 | 54.85651 | 37.54615 | 35386 ft | 435 kts | 161° |
| 2026-05-05 12:40 | 54.82856 | 37.56686 | 35715 ft | 437 kts | 161° |
| 2026-05-05 12:40 | 54.80299 | 37.58577 | 36017 ft | 438 kts | 161° |
| 2026-05-05 12:40 | 54.77484 | 37.60654 | 36145 ft | 445 kts | 160° |
| 2026-05-05 12:40 | 54.74592 | 37.62781 | 35980 ft | 458 kts | 160° |
| 2026-05-05 12:41 | 54.71605 | 37.64978 | 35692 ft | 473 kts | 160° |
| 2026-05-05 12:41 | 54.68527 | 37.67243 | 35408 ft | 485 kts | 160° |
| 2026-05-05 12:41 | 54.65439 | 37.69517 | 35135 ft | 482 kts | 160° |
| 2026-05-05 12:41 | 54.62581 | 37.71616 | 34877 ft | 478 kts | 160° |
| 2026-05-05 12:42 | 54.56603 | 37.75973 | 34861 ft | 476 kts | 160° |
| 2026-05-05 12:42 | 54.50501 | 37.80424 | 34859 ft | 476 kts | 160° |
| 2026-05-05 12:43 | 54.44431 | 37.84949 | 34863 ft | 477 kts | 157° |
| 2026-05-05 12:43 | 54.38632 | 37.90567 | 34861 ft | 479 kts | 151° |
| 2026-05-05 12:44 | 54.32790 | 37.96048 | 34864 ft | 477 kts | 156° |
| 2026-05-05 12:44 | 54.26949 | 38.01429 | 34869 ft | 478 kts | 153° |
| 2026-05-05 12:45 | 54.21136 | 38.06905 | 34867 ft | 477 kts | 154° |
| 2026-05-05 12:45 | 54.15287 | 38.12255 | 34865 ft | 477 kts | 153° |
| 2026-05-05 12:46 | 54.09467 | 38.17681 | 34869 ft | 476 kts | 154° |
| 2026-05-05 12:46 | 54.03657 | 38.22988 | 34870 ft | 476 kts | 153° |
| 2026-05-05 12:47 | 53.97836 | 38.28356 | 34873 ft | 476 kts | 153° |
| 2026-05-05 12:47 | 53.91965 | 38.33706 | 34877 ft | 476 kts | 153° |
| 2026-05-05 12:48 | 53.86143 | 38.39021 | 34876 ft | 475 kts | 153° |
| 2026-05-05 12:48 | 53.80362 | 38.44267 | 34881 ft | 475 kts | 153° |
| 2026-05-05 12:49 | 53.74521 | 38.49484 | 34882 ft | 474 kts | 156° |
| 2026-05-05 12:49 | 53.68357 | 38.53381 | 34888 ft | 472 kts | 165° |
| 2026-05-05 12:50 | 53.62099 | 38.56745 | 34887 ft | 473 kts | 161° |
| 2026-05-05 12:50 | 53.55925 | 38.60595 | 34888 ft | 473 kts | 163° |
| 2026-05-05 12:51 | 53.49684 | 38.64071 | 34887 ft | 473 kts | 162° |
| 2026-05-05 12:51 | 53.43482 | 38.67792 | 34890 ft | 473 kts | 162° |
| 2026-05-05 12:52 | 53.37255 | 38.71333 | 34892 ft | 473 kts | 162° |
| 2026-05-05 12:52 | 53.32085 | 38.74357 | 34898 ft | 474 kts | 162° |
| 2026-05-05 12:53 | 53.25850 | 38.77943 | 34898 ft | 474 kts | 162° |
| 2026-05-05 12:53 | 53.19618 | 38.81528 | 34900 ft | 474 kts | 162° |
| 2026-05-05 12:54 | 53.10283 | 38.86871 | 34902 ft | 473 kts | 162° |
| 2026-05-05 12:55 | 53.04056 | 38.90432 | 34909 ft | 473 kts | 162° |
| 2026-05-05 12:56 | 52.91516 | 38.97552 | 34909 ft | 473 kts | 161° |
| 2026-05-05 12:57 | 52.78468 | 39.04914 | 34915 ft | 473 kts | 161° |
| 2026-05-05 12:57 | 52.72246 | 39.08411 | 34915 ft | 473 kts | 161° |
| 2026-05-05 12:58 | 52.66014 | 39.11901 | 34913 ft | 473 kts | 161° |
| 2026-05-05 12:58 | 52.59780 | 39.15382 | 34921 ft | 473 kts | 161° |
| 2026-05-05 12:59 | 52.53561 | 39.18845 | 34918 ft | 472 kts | 161° |
| 2026-05-05 12:59 | 52.47344 | 39.22295 | 34918 ft | 471 kts | 161° |
| 2026-05-05 13:00 | 52.38039 | 39.27442 | 34923 ft | 470 kts | 161° |
| 2026-05-05 13:01 | 52.25685 | 39.34238 | 34926 ft | 470 kts | 161° |
| 2026-05-05 13:01 | 52.19484 | 39.37634 | 34927 ft | 470 kts | 161° |
| 2026-05-05 13:02 | 52.14298 | 39.40468 | 34926 ft | 469 kts | 161° |
| 2026-05-05 13:02 | 52.08144 | 39.43818 | 34932 ft | 469 kts | 161° |
| 2026-05-05 13:03 | 52.01958 | 39.47181 | 34931 ft | 469 kts | 161° |
| 2026-05-05 13:03 | 51.95766 | 39.50532 | 34931 ft | 469 kts | 161° |
| 2026-05-05 13:04 | 51.89570 | 39.53879 | 34935 ft | 469 kts | 162° |
| 2026-05-05 13:04 | 51.83376 | 39.57213 | 34937 ft | 469 kts | 161° |
| 2026-05-05 13:05 | 51.77180 | 39.60540 | 34936 ft | 469 kts | 162° |
| 2026-05-05 13:05 | 51.70975 | 39.63871 | 34933 ft | 469 kts | 161° |
| 2026-05-05 13:06 | 51.64804 | 39.67253 | 34935 ft | 469 kts | 161° |
| 2026-05-05 13:06 | 51.58613 | 39.70601 | 34940 ft | 469 kts | 161° |
| 2026-05-05 13:07 | 51.52426 | 39.73955 | 34942 ft | 469 kts | 161° |
| 2026-05-05 13:07 | 51.46233 | 39.77293 | 34943 ft | 469 kts | 161° |
| 2026-05-05 13:08 | 51.40038 | 39.80629 | 34945 ft | 469 kts | 161° |
| 2026-05-05 13:08 | 51.33835 | 39.83955 | 34948 ft | 470 kts | 161° |
| 2026-05-05 13:09 | 51.27923 | 39.87120 | 34950 ft | 470 kts | 161° |
| 2026-05-05 13:09 | 51.21723 | 39.90427 | 34952 ft | 470 kts | 161° |
| 2026-05-05 13:10 | 51.15524 | 39.93725 | 34954 ft | 470 kts | 161° |
| 2026-05-05 13:10 | 51.09239 | 39.96492 | 34957 ft | 469 kts | 171° |
| 2026-05-05 13:11 | 51.02724 | 39.97335 | 34960 ft | 470 kts | 178° |
| 2026-05-05 13:11 | 50.96202 | 39.98128 | 34961 ft | 470 kts | 173° |
| 2026-05-05 13:12 | 50.89698 | 39.99062 | 34964 ft | 470 kts | 176° |
| 2026-05-05 13:12 | 50.83175 | 39.99842 | 34962 ft | 470 kts | 174° |
| 2026-05-05 13:13 | 50.76657 | 40.00752 | 34967 ft | 470 kts | 175° |
| 2026-05-05 13:13 | 50.70144 | 40.01557 | 34967 ft | 470 kts | 175° |
| 2026-05-05 13:14 | 50.63624 | 40.02433 | 34969 ft | 470 kts | 175° |
| 2026-05-05 13:14 | 50.57103 | 40.03258 | 34968 ft | 469 kts | 175° |
| 2026-05-05 13:15 | 50.50606 | 40.04109 | 34975 ft | 469 kts | 175° |
| 2026-05-05 13:15 | 50.44131 | 40.04936 | 34978 ft | 469 kts | 175° |
| 2026-05-05 13:16 | 50.37634 | 40.05774 | 34972 ft | 469 kts | 175° |
| 2026-05-05 13:16 | 50.31127 | 40.06606 | 34979 ft | 469 kts | 175° |
| 2026-05-05 13:17 | 50.24634 | 40.07436 | 34977 ft | 469 kts | 175° |
| 2026-05-05 13:17 | 50.18128 | 40.08264 | 34978 ft | 469 kts | 175° |
| 2026-05-05 13:18 | 50.11618 | 40.09091 | 34981 ft | 469 kts | 175° |
| 2026-05-05 13:18 | 50.05121 | 40.09914 | 34984 ft | 469 kts | 175° |
| 2026-05-05 13:19 | 49.98616 | 40.10736 | 34982 ft | 469 kts | 175° |
| 2026-05-05 13:19 | 49.92108 | 40.11555 | 34987 ft | 469 kts | 175° |
| 2026-05-05 13:20 | 49.85608 | 40.12373 | 34987 ft | 469 kts | 175° |
| 2026-05-05 13:20 | 49.79088 | 40.13190 | 34990 ft | 470 kts | 175° |
| 2026-05-05 13:21 | 49.72564 | 40.14005 | 34988 ft | 470 kts | 175° |
| 2026-05-05 13:21 | 49.66042 | 40.14817 | 34995 ft | 470 kts | 175° |
| 2026-05-05 13:22 | 49.59570 | 40.15622 | 34994 ft | 470 kts | 175° |
| 2026-05-05 13:22 | 49.53047 | 40.16430 | 34988 ft | 470 kts | 175° |
| 2026-05-05 13:23 | 49.46724 | 40.17212 | 34996 ft | 470 kts | 175° |
| 2026-05-05 13:23 | 49.40199 | 40.18016 | 34995 ft | 471 kts | 174° |
| 2026-05-05 13:24 | 49.33668 | 40.18820 | 35000 ft | 470 kts | 174° |
| 2026-05-05 13:24 | 49.27141 | 40.19619 | 35001 ft | 470 kts | 174° |
| 2026-05-05 13:25 | 49.20621 | 40.20421 | 35005 ft | 470 kts | 174° |
| 2026-05-05 13:25 | 49.14109 | 40.21212 | 35001 ft | 470 kts | 174° |
| 2026-05-05 13:26 | 49.07587 | 40.22007 | 35005 ft | 470 kts | 174° |
| 2026-05-05 13:26 | 49.02165 | 40.22665 | 35001 ft | 470 kts | 174° |
| 2026-05-05 13:27 | 48.94359 | 40.23610 | 35010 ft | 470 kts | 174° |
| 2026-05-05 13:27 | 48.87837 | 40.24398 | 35008 ft | 470 kts | 174° |
| 2026-05-05 13:28 | 48.82420 | 40.25049 | 35010 ft | 470 kts | 174° |
| 2026-05-05 13:28 | 48.75512 | 40.25881 | 35010 ft | 470 kts | 173° |
| 2026-05-05 13:29 | 48.69040 | 40.26655 | 35016 ft | 469 kts | 173° |
| 2026-05-05 13:29 | 48.62522 | 40.27435 | 35012 ft | 469 kts | 173° |
| 2026-05-05 13:30 | 48.56009 | 40.28210 | 35015 ft | 469 kts | 173° |
| 2026-05-05 13:30 | 48.49543 | 40.28980 | 35015 ft | 469 kts | 173° |
| 2026-05-05 13:31 | 48.43045 | 40.29750 | 35017 ft | 469 kts | 173° |
| 2026-05-05 13:31 | 48.36537 | 40.30520 | 35016 ft | 469 kts | 173° |
| 2026-05-05 13:32 | 48.30036 | 40.31287 | 35011 ft | 469 kts | 173° |
| 2026-05-05 13:32 | 48.23533 | 40.32051 | 35013 ft | 468 kts | 173° |
| 2026-05-05 13:33 | 48.17031 | 40.32816 | 35011 ft | 468 kts | 173° |
| 2026-05-05 13:33 | 48.10535 | 40.33576 | 35013 ft | 468 kts | 173° |
| 2026-05-05 13:34 | 48.04037 | 40.34334 | 35014 ft | 468 kts | 173° |
| 2026-05-05 13:34 | 47.97537 | 40.35092 | 35009 ft | 468 kts | 173° |
| 2026-05-05 13:35 | 47.91048 | 40.35847 | 35010 ft | 468 kts | 173° |
| 2026-05-05 13:35 | 47.84551 | 40.36599 | 35009 ft | 468 kts | 173° |
| 2026-05-05 13:36 | 47.78049 | 40.37351 | 35008 ft | 468 kts | 172° |
| 2026-05-05 13:36 | 47.71545 | 40.38101 | 35005 ft | 468 kts | 173° |
| 2026-05-05 13:37 | 47.65050 | 40.38849 | 35013 ft | 469 kts | 173° |
| 2026-05-05 13:37 | 47.58550 | 40.39594 | 35011 ft | 469 kts | 173° |
| 2026-05-05 13:38 | 47.52042 | 40.40339 | 35014 ft | 469 kts | 173° |
| 2026-05-05 13:38 | 47.45543 | 40.41081 | 35007 ft | 469 kts | 173° |
| 2026-05-05 13:39 | 47.39033 | 40.41823 | 35008 ft | 469 kts | 173° |
| 2026-05-05 13:39 | 47.32579 | 40.42556 | 35015 ft | 468 kts | 173° |
| 2026-05-05 13:40 | 47.26039 | 40.43297 | 35011 ft | 468 kts | 173° |
| 2026-05-05 13:40 | 47.19589 | 40.44026 | 35011 ft | 468 kts | 173° |
| 2026-05-05 13:41 | 47.13082 | 40.44054 | 35012 ft | 474 kts | 187° |
| 2026-05-05 13:41 | 47.09883 | 40.42792 | 35014 ft | 478 kts | 198° |
| 2026-05-05 13:41 | 47.06817 | 40.40886 | 35016 ft | 480 kts | 202° |
| 2026-05-05 13:42 | 47.00918 | 40.36259 | 35013 ft | 481 kts | 205° |
| 2026-05-05 13:42 | 46.94906 | 40.32004 | 35015 ft | 479 kts | 202° |
| 2026-05-05 13:43 | 46.88941 | 40.27602 | 35009 ft | 481 kts | 205° |
| 2026-05-05 13:43 | 46.83011 | 40.23292 | 34648 ft | 460 kts | 202° |
| 2026-05-05 13:44 | 46.80183 | 40.21276 | 34269 ft | 447 kts | 203° |
| 2026-05-05 13:44 | 46.77426 | 40.19260 | 33801 ft | 442 kts | 203° |
| 2026-05-05 13:44 | 46.74685 | 40.17253 | 33259 ft | 438 kts | 203° |
| 2026-05-05 13:44 | 46.71970 | 40.15297 | 32727 ft | 434 kts | 203° |
| 2026-05-05 13:45 | 46.69273 | 40.13364 | 32178 ft | 430 kts | 203° |
| 2026-05-05 13:45 | 46.66606 | 40.11436 | 31644 ft | 427 kts | 203° |
| 2026-05-05 13:45 | 46.63956 | 40.09518 | 31104 ft | 423 kts | 204° |
| 2026-05-05 13:45 | 46.61330 | 40.07628 | 30561 ft | 419 kts | 204° |
| 2026-05-05 13:46 | 46.58728 | 40.05762 | 30009 ft | 416 kts | 204° |
| 2026-05-05 13:46 | 46.56148 | 40.03907 | 29393 ft | 412 kts | 204° |
| 2026-05-05 13:46 | 46.53627 | 40.02095 | 29083 ft | 407 kts | 204° |
| 2026-05-05 13:46 | 46.51064 | 40.00258 | 28779 ft | 406 kts | 204° |
| 2026-05-05 13:47 | 46.48567 | 39.98472 | 28479 ft | 404 kts | 204° |
| 2026-05-05 13:47 | 46.46056 | 39.96676 | 28289 ft | 400 kts | 204° |
| 2026-05-05 13:47 | 46.41056 | 39.93102 | 28830 ft | 402 kts | 204° |
| 2026-05-05 13:48 | 46.38531 | 39.91304 | 29275 ft | 407 kts | 204° |
| 2026-05-05 13:48 | 46.35954 | 39.89470 | 29388 ft | 417 kts | 204° |
| 2026-05-05 13:48 | 46.33305 | 39.87584 | 29369 ft | 433 kts | 204° |
| 2026-05-05 13:48 | 46.30594 | 39.85654 | 29362 ft | 434 kts | 204° |
| 2026-05-05 13:49 | 46.25191 | 39.81816 | 29321 ft | 431 kts | 203° |
| 2026-05-05 13:49 | 46.19815 | 39.78012 | 29263 ft | 430 kts | 203° |
| 2026-05-05 13:50 | 46.14437 | 39.74210 | 29211 ft | 430 kts | 203° |
| 2026-05-05 13:50 | 46.09292 | 39.70583 | 29158 ft | 429 kts | 203° |
| 2026-05-05 13:51 | 46.03930 | 39.66808 | 29104 ft | 429 kts | 203° |
| 2026-05-05 13:51 | 45.98555 | 39.63036 | 29054 ft | 430 kts | 203° |
| 2026-05-05 13:52 | 45.93175 | 39.59266 | 29001 ft | 430 kts | 202° |
| 2026-05-05 13:52 | 45.87830 | 39.55530 | 28948 ft | 430 kts | 202° |
| 2026-05-05 13:53 | 45.82456 | 39.51780 | 28984 ft | 430 kts | 202° |
| 2026-05-05 13:53 | 45.77059 | 39.48025 | 28981 ft | 431 kts | 202° |
| 2026-05-05 13:54 | 45.71649 | 39.44266 | 28985 ft | 432 kts | 202° |
| 2026-05-05 13:54 | 45.66248 | 39.40524 | 28987 ft | 432 kts | 202° |
| 2026-05-05 13:55 | 45.60840 | 39.36783 | 28992 ft | 432 kts | 202° |
| 2026-05-05 13:55 | 45.55614 | 39.33177 | 28999 ft | 433 kts | 202° |
| 2026-05-05 13:56 | 45.50344 | 39.29547 | 29006 ft | 433 kts | 201° |
| 2026-05-05 13:56 | 45.44911 | 39.25814 | 29005 ft | 433 kts | 201° |
| 2026-05-05 13:57 | 45.39513 | 39.22111 | 29013 ft | 433 kts | 201° |
| 2026-05-05 13:57 | 45.34037 | 39.18366 | 29015 ft | 434 kts | 201° |
| 2026-05-05 13:58 | 45.28809 | 39.14795 | 29012 ft | 434 kts | 201° |
| 2026-05-05 13:58 | 45.23561 | 39.11220 | 28987 ft | 435 kts | 201° |
| 2026-05-05 13:59 | 45.18304 | 39.07632 | 28336 ft | 405 kts | 200° |
| 2026-05-05 13:59 | 45.15778 | 39.05926 | 27890 ft | 401 kts | 200° |
| 2026-05-05 14:00 | 45.10778 | 39.02540 | 26949 ft | 396 kts | 201° |
| 2026-05-05 14:00 | 45.09138 | 39.01425 | 26626 ft | 394 kts | 201° |
| 2026-05-05 14:00 | 45.05882 | 38.99225 | 25973 ft | 390 kts | 201° |
| 2026-05-05 14:00 | 45.03400 | 38.97550 | 25464 ft | 388 kts | 201° |
| 2026-05-05 14:01 | 45.01009 | 38.95934 | 24965 ft | 386 kts | 201° |
| 2026-05-05 14:01 | 44.98557 | 38.94280 | 24460 ft | 383 kts | 201° |
| 2026-05-05 14:01 | 44.96192 | 38.92688 | 23950 ft | 381 kts | 201° |
| 2026-05-05 14:01 | 44.93809 | 38.91084 | 23420 ft | 378 kts | 201° |
| 2026-05-05 14:02 | 44.91446 | 38.89493 | 22825 ft | 374 kts | 202° |
| 2026-05-05 14:02 | 44.89114 | 38.87926 | 22275 ft | 369 kts | 202° |
| 2026-05-05 14:02 | 44.86811 | 38.86380 | 21749 ft | 364 kts | 202° |
| 2026-05-05 14:02 | 44.84547 | 38.84863 | 21235 ft | 359 kts | 202° |
| 2026-05-05 14:03 | 44.77904 | 38.81032 | 19744 ft | 342 kts | 186° |
| 2026-05-05 14:03 | 44.77108 | 38.80911 | 19578 ft | 339 kts | 182° |
| 2026-05-05 14:04 | 44.71642 | 38.82089 | 18551 ft | 328 kts | 163° |
| 2026-05-05 14:04 | 44.69464 | 38.82991 | 18154 ft | 326 kts | 163° |
| 2026-05-05 14:04 | 44.67279 | 38.83799 | 17745 ft | 324 kts | 166° |
| 2026-05-05 14:05 | 44.65095 | 38.84530 | 17360 ft | 321 kts | 166° |
| 2026-05-05 14:05 | 44.62935 | 38.85285 | 16979 ft | 320 kts | 165° |
| 2026-05-05 14:05 | 44.60789 | 38.86071 | 16605 ft | 318 kts | 165° |
| 2026-05-05 14:05 | 44.58651 | 38.86843 | 16228 ft | 316 kts | 165° |
| 2026-05-05 14:06 | 44.56525 | 38.87595 | 15850 ft | 315 kts | 166° |
| 2026-05-05 14:06 | 44.54406 | 38.88346 | 15468 ft | 313 kts | 166° |
| 2026-05-05 14:06 | 44.52302 | 38.89097 | 15082 ft | 311 kts | 166° |
| 2026-05-05 14:06 | 44.50205 | 38.89845 | 14687 ft | 310 kts | 166° |
| 2026-05-05 14:07 | 44.48119 | 38.90588 | 14318 ft | 309 kts | 166° |
| 2026-05-05 14:07 | 44.46045 | 38.91323 | 13922 ft | 307 kts | 166° |
| 2026-05-05 14:07 | 44.43981 | 38.92055 | 13506 ft | 306 kts | 166° |
| 2026-05-05 14:08 | 44.39642 | 38.93596 | 12679 ft | 303 kts | 166° |
| 2026-05-05 14:08 | 44.37599 | 38.94319 | 12279 ft | 303 kts | 167° |
| 2026-05-05 14:08 | 44.35562 | 38.95041 | 11884 ft | 302 kts | 167° |
| 2026-05-05 14:08 | 44.33525 | 38.95762 | 11485 ft | 301 kts | 167° |
| 2026-05-05 14:09 | 44.31499 | 38.96479 | 11084 ft | 300 kts | 167° |
| 2026-05-05 14:09 | 44.29477 | 38.97191 | 10641 ft | 301 kts | 167° |
| 2026-05-05 14:09 | 44.27440 | 38.97911 | 10113 ft | 301 kts | 167° |
| 2026-05-05 14:09 | 44.25415 | 38.98626 | 9557 ft | 301 kts | 167° |
| 2026-05-05 14:10 | 44.23402 | 38.99334 | 9180 ft | 295 kts | 167° |
| 2026-05-05 14:10 | 44.21412 | 39.00033 | 8869 ft | 293 kts | 167° |
| 2026-05-05 14:10 | 44.19452 | 39.00726 | 8744 ft | 288 kts | 167° |
| 2026-05-05 14:10 | 44.17507 | 39.01412 | 8796 ft | 289 kts | 167° |
| 2026-05-05 14:11 | 44.15564 | 39.02091 | 8843 ft | 289 kts | 167° |
| 2026-05-05 14:11 | 44.13607 | 39.02764 | 8897 ft | 289 kts | 168° |
| 2026-05-05 14:11 | 44.11647 | 39.03342 | 8950 ft | 284 kts | 170° |
| 2026-05-05 14:11 | 44.09760 | 39.03827 | 8988 ft | 269 kts | 171° |
| 2026-05-05 14:12 | 44.07936 | 39.04311 | 9023 ft | 266 kts | 170° |
| 2026-05-05 14:12 | 44.06139 | 39.04815 | 9066 ft | 267 kts | 169° |
| 2026-05-05 14:12 | 44.04320 | 39.05324 | 9124 ft | 267 kts | 170° |
| 2026-05-05 14:12 | 44.02499 | 39.05823 | 9172 ft | 267 kts | 170° |
| 2026-05-05 14:13 | 44.00832 | 39.06280 | 9221 ft | 262 kts | 170° |
| 2026-05-05 14:13 | 43.99052 | 39.06770 | 9269 ft | 260 kts | 170° |
| 2026-05-05 14:13 | 43.97287 | 39.07256 | 9294 ft | 257 kts | 170° |
| 2026-05-05 14:13 | 43.95539 | 39.07737 | 9312 ft | 252 kts | 170° |
| 2026-05-05 14:14 | 43.93896 | 39.08190 | 9323 ft | 242 kts | 170° |
| 2026-05-05 14:14 | 43.92128 | 39.08670 | 9396 ft | 264 kts | 170° |
| 2026-05-05 14:14 | 43.90324 | 39.09166 | 9484 ft | 265 kts | 170° |
| 2026-05-05 14:14 | 43.88522 | 39.09662 | 9554 ft | 263 kts | 170° |
| 2026-05-05 14:15 | 43.86724 | 39.10155 | 9614 ft | 263 kts | 170° |
| 2026-05-05 14:15 | 43.84931 | 39.10645 | 9669 ft | 263 kts | 170° |
| 2026-05-05 14:15 | 43.83136 | 39.11137 | 9723 ft | 263 kts | 170° |
| 2026-05-05 14:15 | 43.81342 | 39.11627 | 9766 ft | 263 kts | 169° |
| 2026-05-05 14:16 | 43.79551 | 39.12117 | 9826 ft | 263 kts | 170° |
| 2026-05-05 14:16 | 43.77757 | 39.12607 | 9878 ft | 263 kts | 169° |
| 2026-05-05 14:16 | 43.75981 | 39.13092 | 9894 ft | 264 kts | 170° |
| 2026-05-05 14:16 | 43.74161 | 39.13588 | 9764 ft | 262 kts | 170° |
| 2026-05-05 14:17 | 43.72367 | 39.14076 | 9599 ft | 263 kts | 169° |
| 2026-05-05 14:17 | 43.70580 | 39.14564 | 9443 ft | 262 kts | 169° |
| 2026-05-05 14:17 | 43.68791 | 39.15051 | 9282 ft | 262 kts | 169° |
| 2026-05-05 14:17 | 43.67006 | 39.15537 | 9122 ft | 261 kts | 169° |
| 2026-05-05 14:18 | 43.65245 | 39.16016 | 8962 ft | 261 kts | 169° |
| 2026-05-05 14:18 | 43.63463 | 39.16501 | 8810 ft | 261 kts | 169° |
| 2026-05-05 14:18 | 43.61689 | 39.16982 | 8654 ft | 260 kts | 169° |
| 2026-05-05 14:18 | 43.59904 | 39.17454 | 8499 ft | 260 kts | 171° |
| 2026-05-05 14:19 | 43.58113 | 39.17752 | 8303 ft | 260 kts | 176° |
| 2026-05-05 14:19 | 43.56310 | 39.17916 | 8099 ft | 259 kts | 177° |
| 2026-05-05 14:19 | 43.54514 | 39.18117 | 7891 ft | 259 kts | 175° |
| 2026-05-05 14:19 | 43.52723 | 39.18360 | 7699 ft | 259 kts | 175° |
| 2026-05-05 14:20 | 43.50928 | 39.18595 | 7496 ft | 257 kts | 175° |
| 2026-05-05 14:20 | 43.49164 | 39.18815 | 7295 ft | 254 kts | 175° |
| 2026-05-05 14:20 | 43.47404 | 39.19035 | 7089 ft | 254 kts | 175° |
| 2026-05-05 14:20 | 43.45644 | 39.19258 | 6911 ft | 253 kts | 175° |
| 2026-05-05 14:21 | 43.43891 | 39.19480 | 6770 ft | 252 kts | 175° |
| 2026-05-05 14:21 | 43.42142 | 39.19700 | 6615 ft | 253 kts | 175° |
| 2026-05-05 14:21 | 43.40395 | 39.19920 | 6472 ft | 253 kts | 175° |
| 2026-05-05 14:21 | 43.38649 | 39.20140 | 6349 ft | 252 kts | 175° |
| 2026-05-05 14:22 | 43.36898 | 39.20361 | 6218 ft | 252 kts | 175° |
| 2026-05-05 14:22 | 43.35158 | 39.20643 | 6088 ft | 252 kts | 170° |
| 2026-05-05 14:22 | 43.33496 | 39.21292 | 6061 ft | 252 kts | 160° |
| 2026-05-05 14:22 | 43.31876 | 39.22124 | 6091 ft | 252 kts | 160° |
| 2026-05-05 14:23 | 43.30213 | 39.22891 | 6120 ft | 250 kts | 163° |
| 2026-05-05 14:23 | 43.28542 | 39.23599 | 6133 ft | 252 kts | 163° |
| 2026-05-05 14:23 | 43.26962 | 39.24283 | 6148 ft | 252 kts | 162° |
| 2026-05-05 14:23 | 43.25287 | 39.25027 | 6176 ft | 253 kts | 162° |
| 2026-05-05 14:24 | 43.23612 | 39.25768 | 6200 ft | 253 kts | 162° |
| 2026-05-05 14:24 | 43.21934 | 39.26505 | 6230 ft | 253 kts | 162° |
| 2026-05-05 14:24 | 43.20255 | 39.27242 | 6253 ft | 254 kts | 162° |
| 2026-05-05 14:24 | 43.18603 | 39.28095 | 6266 ft | 254 kts | 151° |
| 2026-05-05 14:25 | 43.17353 | 39.29493 | 6340 ft | 252 kts | 131° |
| 2026-05-05 14:25 | 43.16424 | 39.31516 | 6148 ft | 246 kts | 110° |
| 2026-05-05 14:25 | 43.16081 | 39.33776 | 5824 ft | 241 kts | 91° |
| 2026-05-05 14:25 | 43.16272 | 39.36028 | 5457 ft | 238 kts | 75° |
| 2026-05-05 14:26 | 43.16750 | 39.38136 | 5079 ft | 225 kts | 68° |
| 2026-05-05 14:26 | 43.17275 | 39.40145 | 4697 ft | 224 kts | 69° |
| 2026-05-05 14:26 | 43.17759 | 39.42164 | 4349 ft | 223 kts | 70° |
| 2026-05-05 14:26 | 43.18223 | 39.44193 | 4027 ft | 222 kts | 70° |
| 2026-05-05 14:27 | 43.18691 | 39.46205 | 3697 ft | 221 kts | 69° |
| 2026-05-05 14:27 | 43.19162 | 39.48213 | 3373 ft | 220 kts | 70° |
| 2026-05-05 14:27 | 43.19624 | 39.50192 | 3091 ft | 212 kts | 70° |
| 2026-05-05 14:27 | 43.20069 | 39.52102 | 2846 ft | 209 kts | 70° |
| 2026-05-05 14:28 | 43.20510 | 39.53990 | 2599 ft | 207 kts | 70° |
| 2026-05-05 14:28 | 43.20953 | 39.55887 | 2425 ft | 209 kts | 70° |
| 2026-05-05 14:28 | 43.21398 | 39.57801 | 2271 ft | 222 kts | 70° |
| 2026-05-05 14:28 | 43.21865 | 39.59809 | 2140 ft | 222 kts | 70° |
| 2026-05-05 14:29 | 43.22328 | 39.61807 | 2135 ft | 218 kts | 70° |
| 2026-05-05 14:29 | 43.22792 | 39.63810 | 2136 ft | 221 kts | 70° |
| 2026-05-05 14:29 | 43.23254 | 39.65806 | 2138 ft | 220 kts | 70° |
| 2026-05-05 14:29 | 43.23721 | 39.67812 | 2136 ft | 222 kts | 70° |
| 2026-05-05 14:30 | 43.24179 | 39.69791 | 2137 ft | 220 kts | 70° |
| 2026-05-05 14:30 | 43.24641 | 39.71792 | 2138 ft | 220 kts | 70° |
| 2026-05-05 14:30 | 43.25102 | 39.73790 | 2135 ft | 220 kts | 70° |
| 2026-05-05 14:30 | 43.25530 | 39.75641 | 2139 ft | 219 kts | 70° |
| 2026-05-05 14:31 | 43.25992 | 39.77645 | 2138 ft | 219 kts | 70° |
| 2026-05-05 14:31 | 43.26452 | 39.79643 | 2134 ft | 218 kts | 70° |
| 2026-05-05 14:31 | 43.27037 | 39.81566 | 2125 ft | 216 kts | 54° |
| 2026-05-05 14:31 | 43.28101 | 39.82985 | 2107 ft | 213 kts | 33° |
| 2026-05-05 14:32 | 43.29378 | 39.84000 | 2110 ft | 212 kts | 25° |
| 2026-05-05 14:32 | 43.30705 | 39.84920 | 2120 ft | 211 kts | 24° |
| 2026-05-05 14:32 | 43.31879 | 39.85779 | 2101 ft | 173 kts | 26° |
| 2026-05-05 14:32 | 43.32858 | 39.86529 | 2061 ft | 147 kts | 25° |
| 2026-05-05 14:33 | 43.33708 | 39.87149 | 2074 ft | 138 kts | 24° |
| 2026-05-05 14:33 | 43.34558 | 39.87798 | 1998 ft | 142 kts | 25° |
| 2026-05-05 14:33 | 43.35409 | 39.88429 | 1812 ft | 137 kts | 25° |
| 2026-05-05 14:33 | 43.36255 | 39.89068 | 1640 ft | 139 kts | 24° |
| 2026-05-05 14:34 | 43.37109 | 39.89709 | 1455 ft | 140 kts | 25° |
| 2026-05-05 14:34 | 43.37947 | 39.90345 | 1406 ft | 138 kts | 26° |
| 2026-05-05 14:34 | 43.38803 | 39.91032 | 1225 ft | 136 kts | 26° |
| 2026-05-05 14:34 | 43.39629 | 39.91649 | 1073 ft | 136 kts | 25° |
| 2026-05-05 14:35 | 43.40468 | 39.92266 | 816 ft | 137 kts | 25° |
| 2026-05-05 14:35 | 43.41283 | 39.92858 | 649 ft | 137 kts | 24° |
| 2026-05-05 14:35 | 43.42118 | 39.93479 | 434 ft | 136 kts | 26° |
| 2026-05-05 14:35 | 43.42936 | 39.94089 | 252 ft | 129 kts | 27° |
| 2026-05-05 14:36 | 43.43672 | 39.94643 | 96 ft | 112 kts | 27° |
| 2026-05-05 14:36 | 43.44246 | 39.95072 | 82 ft | 93 kts | 28° |
| 2026-05-05 14:36 | 43.44700 | 39.95411 | 91 ft | 45 kts | 29° |
| 2026-05-05 14:36 | 43.44886 | 39.95551 | 94 ft | 28 kts | 27° |
| 2026-05-05 14:37 | 43.44990 | 39.95558 | 94 ft | 14 kts | 333° |
| 2026-05-05 14:37 | 43.45039 | 39.95525 | 95 ft | 0 kts | 334° |
| 2026-05-05 14:39 | 43.45041 | 39.95524 | 95 ft | 2 kts | 334° |
| 2026-05-05 14:39 | 43.45060 | 39.95482 | 96 ft | 9 kts | 268° |
| 2026-05-05 14:39 | 43.45027 | 39.95367 | 95 ft | 18 kts | 243° |
| 2026-05-05 14:39 | 43.44966 | 39.95199 | 89 ft | 9 kts | 244° |
| 2026-05-05 14:40 | 43.44921 | 39.95073 | 87 ft | 20 kts | 244° |
| 2026-05-05 14:40 | 43.44883 | 39.94964 | 86 ft | 5 kts | 245° |
| 2026-05-05 14:40 | 43.44863 | 39.94906 | 83 ft | 8 kts | 243° |
| 2026-05-05 14:40 | 43.44824 | 39.94784 | 76 ft | 19 kts | 245° |
| 2026-05-05 14:41 | 43.44766 | 39.94619 | 74 ft | 11 kts | 245° |
| 2026-05-05 14:41 | 43.44767 | 39.94555 | 70 ft | 8 kts | 321° |
| 2026-05-05 14:41 | 43.44799 | 39.94531 | 78 ft | 3 kts | 335° |
| 2026-05-05 14:41 | 43.44835 | 39.94508 | 78 ft | 2 kts | 335° |
| 2026-05-05 14:42 | 43.44843 | 39.94503 | 78 ft | 0 kts | 335° |